sensor_id;sensor_type;location;lat;lon;timestamp;pressure;altitude;pressure_sealevel;temperature;humidity
78855;BME280;68206;59.956;30.234;2023-04-16T00:01:15;102771.31;;;5.96;29.45
78855;BME280;68206;59.956;30.234;2023-04-16T00:03:44;102775.72;;;5.97;29.75
78855;BME280;68206;59.956;30.234;2023-04-16T00:06:12;102773.03;;;5.95;29.76
78855;BME280;68206;59.956;30.234;2023-04-16T00:08:42;102769.44;;;5.90;29.78
78855;BME280;68206;59.956;30.234;2023-04-16T00:11:10;102768.53;;;5.90;29.55
78855;BME280;68206;59.956;30.234;2023-04-16T00:13:38;102769.34;;;5.87;30.10
78855;BME280;68206;59.956;30.234;2023-04-16T00:16:07;102762.16;;;5.80;29.94
78855;BME280;68206;59.956;30.234;2023-04-16T00:18:35;102767.47;;;5.83;30.04
78855;BME280;68206;59.956;30.234;2023-04-16T00:21:03;102765.69;;;5.82;30.10
78855;BME280;68206;59.956;30.234;2023-04-16T00:23:31;102765.69;;;5.81;30.19
78855;BME280;68206;59.956;30.234;2023-04-16T00:26:00;102756.88;;;5.80;30.09
78855;BME280;68206;59.956;30.234;2023-04-16T00:28:29;102765.63;;;5.79;30.25
78855;BME280;68206;59.956;30.234;2023-04-16T00:30:57;102758.59;;;5.78;30.20
78855;BME280;68206;59.956;30.234;2023-04-16T00:33:25;102762.03;;;5.76;30.21
78855;BME280;68206;59.956;30.234;2023-04-16T00:35:53;102756.72;;;5.73;30.49
78855;BME280;68206;59.956;30.234;2023-04-16T00:38:21;102764.56;;;5.71;30.20
78855;BME280;68206;59.956;30.234;2023-04-16T00:40:49;102757.38;;;5.64;30.33
78855;BME280;68206;59.956;30.234;2023-04-16T00:43:23;102760.00;;;5.64;30.52
78855;BME280;68206;59.956;30.234;2023-04-16T00:45:52;102761.78;;;5.65;30.41
78855;BME280;68206;59.956;30.234;2023-04-16T00:48:22;102766.16;;;5.64;30.31
78855;BME280;68206;59.956;30.234;2023-04-16T00:50:53;102764.38;;;5.62;30.42
78855;BME280;68206;59.956;30.234;2023-04-16T00:53:22;102759.94;;;5.61;30.51
78855;BME280;68206;59.956;30.234;2023-04-16T00:55:50;102769.59;;;5.60;30.38
78855;BME280;68206;59.956;30.234;2023-04-16T00:58:18;102759.97;;;5.62;30.18
78855;BME280;68206;59.956;30.234;2023-04-16T01:00:49;102768.78;;;5.64;30.45
78855;BME280;68206;59.956;30.234;2023-04-16T01:03:18;102753.84;;;5.63;30.47
78855;BME280;68206;59.956;30.234;2023-04-16T01:05:47;102759.09;;;5.62;30.30
78855;BME280;68206;59.956;30.234;2023-04-16T01:08:17;102754.69;;;5.61;30.06
78855;BME280;68206;59.956;30.234;2023-04-16T01:10:45;102766.13;;;5.63;30.45
78855;BME280;68206;59.956;30.234;2023-04-16T01:13:13;102759.19;;;5.66;29.93
78855;BME280;68206;59.956;30.234;2023-04-16T01:15:41;102766.25;;;5.67;29.92
78855;BME280;68206;59.956;30.234;2023-04-16T01:18:15;102752.00;;;5.59;29.79
78855;BME280;68206;59.956;30.234;2023-04-16T01:20:45;102752.81;;;5.57;30.08
78855;BME280;68206;59.956;30.234;2023-04-16T01:23:13;102753.69;;;5.56;30.25
78855;BME280;68206;59.956;30.234;2023-04-16T01:25:42;102754.53;;;5.55;29.78
78855;BME280;68206;59.956;30.234;2023-04-16T01:28:10;102756.25;;;5.53;30.22
78855;BME280;68206;59.956;30.234;2023-04-16T01:30:38;102759.72;;;5.52;30.21
78855;BME280;68206;59.956;30.234;2023-04-16T01:33:18;102759.66;;;5.49;30.24
78855;BME280;68206;59.956;30.234;2023-04-16T01:35:47;102756.09;;;5.47;30.28
78855;BME280;68206;59.956;30.234;2023-04-16T01:38:15;102741.09;;;5.43;30.74
78855;BME280;68206;59.956;30.234;2023-04-16T01:40:44;102749.00;;;5.43;30.58
78855;BME280;68206;59.956;30.234;2023-04-16T01:43:12;102744.53;;;5.40;30.95
78855;BME280;68206;59.956;30.234;2023-04-16T01:45:40;102750.59;;;5.36;30.86
78855;BME280;68206;59.956;30.234;2023-04-16T01:48:08;102749.66;;;5.34;30.80
78855;BME280;68206;59.956;30.234;2023-04-16T01:50:36;102740.75;;;5.29;31.05
78855;BME280;68206;59.956;30.234;2023-04-16T01:53:05;102740.72;;;5.27;31.50
78855;BME280;68206;59.956;30.234;2023-04-16T01:55:35;102745.03;;;5.24;31.34
78855;BME280;68206;59.956;30.234;2023-04-16T01:58:03;102748.50;;;5.23;31.50
78855;BME280;68206;59.956;30.234;2023-04-16T02:00:34;102732.63;;;5.18;31.34
78855;BME280;68206;59.956;30.234;2023-04-16T02:03:02;102733.47;;;5.17;31.31
78855;BME280;68206;59.956;30.234;2023-04-16T02:05:30;102741.25;;;5.14;31.33
78855;BME280;68206;59.956;30.234;2023-04-16T02:07:59;102736.00;;;5.14;31.57
78855;BME280;68206;59.956;30.234;2023-04-16T02:10:28;102733.31;;;5.13;31.49
78855;BME280;68206;59.956;30.234;2023-04-16T02:12:57;102729.81;;;5.12;31.55
78855;BME280;68206;59.956;30.234;2023-04-16T02:15:25;102734.16;;;5.10;31.46
78855;BME280;68206;59.956;30.234;2023-04-16T02:17:53;102727.16;;;5.12;31.86
78855;BME280;68206;59.956;30.234;2023-04-16T02:20:24;102734.91;;;5.06;31.94
78855;BME280;68206;59.956;30.234;2023-04-16T02:22:57;102721.81;;;5.08;31.84
78855;BME280;68206;59.956;30.234;2023-04-16T02:25:25;102728.78;;;5.06;31.96
78855;BME280;68206;59.956;30.234;2023-04-16T02:27:57;102726.06;;;5.03;32.12
78855;BME280;68206;59.956;30.234;2023-04-16T02:30:34;102722.53;;;5.02;31.96
78855;BME280;68206;59.956;30.234;2023-04-16T02:33:03;102722.41;;;4.96;32.40
78855;BME280;68206;59.956;30.234;2023-04-16T02:35:34;102714.50;;;4.96;32.37
78855;BME280;68206;59.956;30.234;2023-04-16T02:38:03;102719.69;;;4.93;32.53
78855;BME280;68206;59.956;30.234;2023-04-16T02:40:34;102726.75;;;4.96;32.62
78855;BME280;68206;59.956;30.234;2023-04-16T02:43:03;102720.56;;;4.94;32.68
78855;BME280;68206;59.956;30.234;2023-04-16T02:45:32;102722.22;;;4.90;32.68
78855;BME280;68206;59.956;30.234;2023-04-16T02:48:00;102715.13;;;4.86;32.69
78855;BME280;68206;59.956;30.234;2023-04-16T02:50:28;102725.59;;;4.84;32.81
78855;BME280;68206;59.956;30.234;2023-04-16T02:52:56;102714.16;;;4.82;33.12
78855;BME280;68206;59.956;30.234;2023-04-16T02:55:24;102708.03;;;4.83;33.16
78855;BME280;68206;59.956;30.234;2023-04-16T02:57:53;102729.03;;;4.82;32.90
78855;BME280;68206;59.956;30.234;2023-04-16T03:00:23;102721.19;;;4.83;33.25
78855;BME280;68206;59.956;30.234;2023-04-16T03:02:51;102723.81;;;4.83;33.20
78855;BME280;68206;59.956;30.234;2023-04-16T03:05:19;102720.28;;;4.83;33.29
78855;BME280;68206;59.956;30.234;2023-04-16T03:07:47;102706.34;;;4.85;33.43
78855;BME280;68206;59.956;30.234;2023-04-16T03:10:16;102709.03;;;4.87;33.02
78855;BME280;68206;59.956;30.234;2023-04-16T03:12:45;102710.78;;;4.88;32.70
78855;BME280;68206;59.956;30.234;2023-04-16T03:15:13;102709.78;;;4.83;33.29
78855;BME280;68206;59.956;30.234;2023-04-16T03:17:42;102712.50;;;4.86;33.52
78855;BME280;68206;59.956;30.234;2023-04-16T03:20:11;102720.38;;;4.86;33.07
78855;BME280;68206;59.956;30.234;2023-04-16T03:22:40;102724.75;;;4.85;33.23
78855;BME280;68206;59.956;30.234;2023-04-16T03:25:08;102720.25;;;4.81;32.93
78855;BME280;68206;59.956;30.234;2023-04-16T03:27:37;102715.03;;;4.83;33.45
78855;BME280;68206;59.956;30.234;2023-04-16T03:30:06;102721.97;;;4.81;33.00
78855;BME280;68206;59.956;30.234;2023-04-16T03:32:35;102704.56;;;4.84;33.26
78855;BME280;68206;59.956;30.234;2023-04-16T03:35:06;102726.50;;;4.85;33.58
78855;BME280;68206;59.956;30.234;2023-04-16T03:37:37;102710.81;;;4.90;33.42
78855;BME280;68206;59.956;30.234;2023-04-16T03:40:06;102709.94;;;4.89;33.58
78855;BME280;68206;59.956;30.234;2023-04-16T03:42:35;102709.97;;;4.91;33.24
78855;BME280;68206;59.956;30.234;2023-04-16T03:45:05;102713.56;;;4.94;33.35
78855;BME280;68206;59.956;30.234;2023-04-16T03:47:36;102706.47;;;4.90;33.22
78855;BME280;68206;59.956;30.234;2023-04-16T03:50:06;102703.84;;;4.90;33.55
78855;BME280;68206;59.956;30.234;2023-04-16T03:52:35;102707.41;;;4.94;33.66
78855;BME280;68206;59.956;30.234;2023-04-16T03:55:04;102697.88;;;4.97;33.57
78855;BME280;68206;59.956;30.234;2023-04-16T03:57:32;102698.72;;;4.96;33.18
78855;BME280;68206;59.956;30.234;2023-04-16T04:00:06;102697.09;;;5.01;33.50
78855;BME280;68206;59.956;30.234;2023-04-16T04:02:47;102697.19;;;5.04;33.25
78855;BME280;68206;59.956;30.234;2023-04-16T04:05:19;102699.13;;;5.11;32.86
78855;BME280;68206;59.956;30.234;2023-04-16T04:07:48;102700.91;;;5.14;32.96
78855;BME280;68206;59.956;30.234;2023-04-16T04:10:16;102694.00;;;5.17;33.12
78855;BME280;68206;59.956;30.234;2023-04-16T04:12:45;102685.31;;;5.21;32.71
78855;BME280;68206;59.956;30.234;2023-04-16T04:15:13;102686.16;;;5.20;32.70
78855;BME280;68206;59.956;30.234;2023-04-16T04:17:41;102691.53;;;5.25;32.91
78855;BME280;68206;59.956;30.234;2023-04-16T04:20:11;102688.09;;;5.27;32.48
78855;BME280;68206;59.956;30.234;2023-04-16T04:22:44;102684.72;;;5.33;32.46
78855;BME280;68206;59.956;30.234;2023-04-16T04:25:12;102687.44;;;5.38;32.31
78855;BME280;68206;59.956;30.234;2023-04-16T04:27:40;102683.06;;;5.38;32.46
78855;BME280;68206;59.956;30.234;2023-04-16T04:30:09;102680.56;;;5.43;32.50
78855;BME280;68206;59.956;30.234;2023-04-16T04:32:39;102674.41;;;5.42;32.22
78855;BME280;68206;59.956;30.234;2023-04-16T04:35:08;102678.13;;;5.52;32.16
78855;BME280;68206;59.956;30.234;2023-04-16T04:37:36;102673.91;;;5.58;31.89
78855;BME280;68206;59.956;30.234;2023-04-16T04:40:13;102680.22;;;5.66;31.64
78855;BME280;68206;59.956;30.234;2023-04-16T04:42:42;102683.94;;;5.75;31.85
78855;BME280;68206;59.956;30.234;2023-04-16T04:45:10;102680.56;;;5.83;31.19
78855;BME280;68206;59.956;30.234;2023-04-16T04:47:40;102680.09;;;5.99;31.32
78855;BME280;68206;59.956;30.234;2023-04-16T04:50:09;102681.16;;;6.09;31.17
78855;BME280;68206;59.956;30.234;2023-04-16T04:52:37;102678.72;;;6.18;30.78
78855;BME280;68206;59.956;30.234;2023-04-16T04:55:07;102680.63;;;6.27;30.59
78855;BME280;68206;59.956;30.234;2023-04-16T04:57:36;102671.09;;;6.33;30.64
78855;BME280;68206;59.956;30.234;2023-04-16T05:00:06;102681.84;;;6.45;30.22
78855;BME280;68206;59.956;30.234;2023-04-16T05:02:47;102688.91;;;6.46;29.83
78855;BME280;68206;59.956;30.234;2023-04-16T05:05:17;102681.19;;;6.57;30.11
78855;BME280;68206;59.956;30.234;2023-04-16T05:07:45;102678.81;;;6.71;30.29
78855;BME280;68206;59.956;30.234;2023-04-16T05:10:13;102676.44;;;6.87;29.79
78855;BME280;68206;59.956;30.234;2023-04-16T05:12:42;102679.66;;;7.21;28.58
78855;BME280;68206;59.956;30.234;2023-04-16T05:15:14;102674.00;;;7.57;28.81
78855;BME280;68206;59.956;30.234;2023-04-16T05:17:42;102673.63;;;7.93;27.56
78855;BME280;68206;59.956;30.234;2023-04-16T05:20:10;102673.25;;;8.33;26.96
78855;BME280;68206;59.956;30.234;2023-04-16T05:22:38;102670.19;;;8.78;26.65
78855;BME280;68206;59.956;30.234;2023-04-16T05:25:07;102666.81;;;9.01;26.73
78855;BME280;68206;59.956;30.234;2023-04-16T05:27:35;102672.00;;;8.85;26.83
78855;BME280;68206;59.956;30.234;2023-04-16T05:30:06;102662.34;;;8.94;26.23
78855;BME280;68206;59.956;30.234;2023-04-16T05:32:35;102665.91;;;8.96;25.99
78855;BME280;68206;59.956;30.234;2023-04-16T05:35:04;102658.06;;;9.08;25.70
78855;BME280;68206;59.956;30.234;2023-04-16T05:37:32;102658.38;;;9.49;25.73
78855;BME280;68206;59.956;30.234;2023-04-16T05:40:00;102657.63;;;9.82;25.01
78855;BME280;68206;59.956;30.234;2023-04-16T05:42:29;102654.28;;;10.31;24.81
78855;BME280;68206;59.956;30.234;2023-04-16T05:44:58;102653.47;;;11.19;23.13
78855;BME280;68206;59.956;30.234;2023-04-16T05:47:27;102654.06;;;12.20;22.42
78855;BME280;68206;59.956;30.234;2023-04-16T05:49:55;102648.53;;;12.51;21.47
78855;BME280;68206;59.956;30.234;2023-04-16T05:52:23;102656.28;;;12.85;21.59
78855;BME280;68206;59.956;30.234;2023-04-16T05:54:51;102651.44;;;13.32;20.95
78855;BME280;68206;59.956;30.234;2023-04-16T05:57:19;102656.75;;;14.10;19.97
78855;BME280;68206;59.956;30.234;2023-04-16T05:59:48;102650.22;;;14.91;19.00
78855;BME280;68206;59.956;30.234;2023-04-16T06:02:16;102646.28;;;15.12;18.76
78855;BME280;68206;59.956;30.234;2023-04-16T06:04:46;102645.72;;;14.93;18.67
78855;BME280;68206;59.956;30.234;2023-04-16T06:07:15;102639.22;;;15.08;18.28
78855;BME280;68206;59.956;30.234;2023-04-16T06:09:44;102642.38;;;15.31;17.92
78855;BME280;68206;59.956;30.234;2023-04-16T06:12:12;102643.44;;;14.70;18.78
78855;BME280;68206;59.956;30.234;2023-04-16T06:14:41;102641.66;;;14.06;19.04
78855;BME280;68206;59.956;30.234;2023-04-16T06:17:12;102646.63;;;13.65;19.52
78855;BME280;68206;59.956;30.234;2023-04-16T06:19:49;102646.22;;;13.22;20.14
78855;BME280;68206;59.956;30.234;2023-04-16T06:22:24;102643.56;;;13.20;20.55
78855;BME280;68206;59.956;30.234;2023-04-16T06:25:18;102640.03;;;13.18;20.48
78855;BME280;68206;59.956;30.234;2023-04-16T06:27:56;102639.19;;;13.10;20.98
78855;BME280;68206;59.956;30.234;2023-04-16T06:30:36;102638.44;;;12.93;21.07
78855;BME280;68206;59.956;30.234;2023-04-16T06:33:22;102639.44;;;12.83;20.97
78855;BME280;68206;59.956;30.234;2023-04-16T06:35:56;102640.00;;;13.21;21.05
78855;BME280;68206;59.956;30.234;2023-04-16T06:38:41;102633.72;;;13.28;20.54
78855;BME280;68206;59.956;30.234;2023-04-16T06:41:10;102627.56;;;13.22;20.41
78855;BME280;68206;59.956;30.234;2023-04-16T06:43:38;102627.72;;;13.02;20.42
78855;BME280;68206;59.956;30.234;2023-04-16T06:46:07;102636.56;;;13.06;20.92
78855;BME280;68206;59.956;30.234;2023-04-16T06:48:35;102631.22;;;13.10;20.96
78855;BME280;68206;59.956;30.234;2023-04-16T06:51:04;102624.75;;;13.36;20.32
78855;BME280;68206;59.956;30.234;2023-04-16T06:53:35;102625.47;;;13.50;20.37
78855;BME280;68206;59.956;30.234;2023-04-16T06:56:17;102620.06;;;13.59;20.01
78855;BME280;68206;59.956;30.234;2023-04-16T06:58:51;102617.38;;;13.60;19.76
78855;BME280;68206;59.956;30.234;2023-04-16T07:01:28;102622.81;;;13.51;19.87
78855;BME280;68206;59.956;30.234;2023-04-16T07:03:59;102625.59;;;13.39;20.13
78855;BME280;68206;59.956;30.234;2023-04-16T07:06:29;102616.78;;;13.31;20.60
78855;BME280;68206;59.956;30.234;2023-04-16T07:08:58;102630.16;;;13.29;20.21
78855;BME280;68206;59.956;30.234;2023-04-16T07:11:26;102626.78;;;13.09;20.37
78855;BME280;68206;59.956;30.234;2023-04-16T07:13:55;102630.38;;;13.05;20.56
78855;BME280;68206;59.956;30.234;2023-04-16T07:16:23;102631.94;;;13.29;20.79
78855;BME280;68206;59.956;30.234;2023-04-16T07:18:51;102627.38;;;13.39;20.26
78855;BME280;68206;59.956;30.234;2023-04-16T07:21:19;102619.97;;;13.65;19.88
78855;BME280;68206;59.956;30.234;2023-04-16T07:23:50;102615.88;;;14.05;20.10
78855;BME280;68206;59.956;30.234;2023-04-16T07:26:18;102623.31;;;14.48;19.47
78855;BME280;68206;59.956;30.234;2023-04-16T07:28:46;102623.31;;;15.02;19.19
78855;BME280;68206;59.956;30.234;2023-04-16T07:31:14;102624.09;;;15.56;18.31
78855;BME280;68206;59.956;30.234;2023-04-16T07:33:43;102615.72;;;16.14;17.75
78855;BME280;68206;59.956;30.234;2023-04-16T07:36:11;102610.03;;;16.29;17.21
78855;BME280;68206;59.956;30.234;2023-04-16T07:38:40;102613.16;;;16.85;17.06
78855;BME280;68206;59.956;30.234;2023-04-16T07:41:09;102620.47;;;17.45;16.57
78855;BME280;68206;59.956;30.234;2023-04-16T07:43:37;102619.38;;;17.52;16.44
78855;BME280;68206;59.956;30.234;2023-04-16T07:46:05;102606.66;;;17.60;16.21
78855;BME280;68206;59.956;30.234;2023-04-16T07:48:33;102605.19;;;17.48;16.25
78855;BME280;68206;59.956;30.234;2023-04-16T07:51:02;102610.34;;;17.23;16.44
78855;BME280;68206;59.956;30.234;2023-04-16T07:53:30;102607.28;;;17.05;16.65
78855;BME280;68206;59.956;30.234;2023-04-16T07:55:58;102604.19;;;17.52;16.71
78855;BME280;68206;59.956;30.234;2023-04-16T07:58:27;102605.34;;;17.74;16.51
78855;BME280;68206;59.956;30.234;2023-04-16T08:00:56;102599.34;;;17.66;16.06
78855;BME280;68206;59.956;30.234;2023-04-16T08:03:24;102608.25;;;17.34;16.57
78855;BME280;68206;59.956;30.234;2023-04-16T08:05:52;102605.53;;;17.04;16.53
78855;BME280;68206;59.956;30.234;2023-04-16T08:08:21;102613.31;;;16.42;16.68
78855;BME280;68206;59.956;30.234;2023-04-16T08:10:49;102603.34;;;16.10;16.94
78855;BME280;68206;59.956;30.234;2023-04-16T08:13:21;102609.41;;;15.77;16.60
78855;BME280;68206;59.956;30.234;2023-04-16T08:15:51;102621.16;;;15.22;17.17
78855;BME280;68206;59.956;30.234;2023-04-16T08:18:19;102610.22;;;14.86;18.02
78855;BME280;68206;59.956;30.234;2023-04-16T08:20:47;102623.16;;;14.57;18.20
78855;BME280;68206;59.956;30.234;2023-04-16T08:23:16;102618.69;;;14.59;17.96
78855;BME280;68206;59.956;30.234;2023-04-16T08:25:44;102612.41;;;14.62;18.30
78855;BME280;68206;59.956;30.234;2023-04-16T08:28:12;102618.72;;;14.56;17.97
78855;BME280;68206;59.956;30.234;2023-04-16T08:30:40;102602.06;;;14.42;17.79
78855;BME280;68206;59.956;30.234;2023-04-16T08:33:09;102601.09;;;14.44;17.92
78855;BME280;68206;59.956;30.234;2023-04-16T08:35:38;102595.91;;;14.34;18.08
78855;BME280;68206;59.956;30.234;2023-04-16T08:38:06;102606.53;;;14.38;18.29
78855;BME280;68206;59.956;30.234;2023-04-16T08:40:37;102603.03;;;14.35;18.24
78855;BME280;68206;59.956;30.234;2023-04-16T08:43:09;102596.66;;;14.43;18.01
78855;BME280;68206;59.956;30.234;2023-04-16T08:45:41;102598.44;;;14.44;18.14
78855;BME280;68206;59.956;30.234;2023-04-16T08:48:12;102588.03;;;14.25;18.25
78855;BME280;68206;59.956;30.234;2023-04-16T08:50:40;102602.31;;;14.22;18.24
78855;BME280;68206;59.956;30.234;2023-04-16T08:53:17;102592.38;;;14.33;18.23
78855;BME280;68206;59.956;30.234;2023-04-16T08:55:47;102597.69;;;14.35;17.44
78855;BME280;68206;59.956;30.234;2023-04-16T08:58:18;102595.88;;;14.38;17.79
78855;BME280;68206;59.956;30.234;2023-04-16T09:00:47;102607.56;;;14.28;16.47
78855;BME280;68206;59.956;30.234;2023-04-16T09:03:17;102589.16;;;14.08;16.32
78855;BME280;68206;59.956;30.234;2023-04-16T09:05:48;102595.41;;;14.07;16.53
78855;BME280;68206;59.956;30.234;2023-04-16T09:08:16;102585.72;;;14.00;16.87
78855;BME280;68206;59.956;30.234;2023-04-16T09:10:45;102584.84;;;14.00;16.57
78855;BME280;68206;59.956;30.234;2023-04-16T09:13:14;102586.84;;;13.83;16.62
78855;BME280;68206;59.956;30.234;2023-04-16T09:15:43;102579.75;;;13.82;16.61
78855;BME280;68206;59.956;30.234;2023-04-16T09:18:11;102576.16;;;13.86;16.40
78855;BME280;68206;59.956;30.234;2023-04-16T09:20:41;102575.13;;;13.94;16.44
78855;BME280;68206;59.956;30.234;2023-04-16T09:23:09;102575.31;;;13.82;16.25
78855;BME280;68206;59.956;30.234;2023-04-16T09:25:37;102564.72;;;13.76;16.53
78855;BME280;68206;59.956;30.234;2023-04-16T09:28:06;102579.81;;;13.80;16.09
78855;BME280;68206;59.956;30.234;2023-04-16T09:30:34;102578.84;;;13.86;16.00
78855;BME280;68206;59.956;30.234;2023-04-16T09:33:13;102565.34;;;13.96;16.44
78855;BME280;68206;59.956;30.234;2023-04-16T09:35:48;102567.22;;;13.88;16.72
78855;BME280;68206;59.956;30.234;2023-04-16T09:38:16;102577.25;;;13.69;17.18
78855;BME280;68206;59.956;30.234;2023-04-16T09:40:45;102574.59;;;13.68;17.16
78855;BME280;68206;59.956;30.234;2023-04-16T09:43:15;102563.03;;;13.70;16.75
78855;BME280;68206;59.956;30.234;2023-04-16T09:45:48;102576.19;;;13.84;16.09
78855;BME280;68206;59.956;30.234;2023-04-16T09:48:27;102571.75;;;13.83;16.32
78855;BME280;68206;59.956;30.234;2023-04-16T09:50:57;102570.84;;;13.84;16.79
78855;BME280;68206;59.956;30.234;2023-04-16T09:53:27;102572.47;;;13.94;16.63
78855;BME280;68206;59.956;30.234;2023-04-16T09:55:56;102570.84;;;13.86;16.29
78855;BME280;68206;59.956;30.234;2023-04-16T09:58:24;102577.97;;;13.84;16.81
78855;BME280;68206;59.956;30.234;2023-04-16T10:00:54;102565.53;;;13.81;17.05
78855;BME280;68206;59.956;30.234;2023-04-16T10:03:28;102567.38;;;13.78;17.18
78855;BME280;68206;59.956;30.234;2023-04-16T10:06:00;102572.06;;;13.60;17.60
78855;BME280;68206;59.956;30.234;2023-04-16T10:08:29;102587.16;;;13.61;17.60
78855;BME280;68206;59.956;30.234;2023-04-16T10:10:57;102572.00;;;13.63;17.41
78855;BME280;68206;59.956;30.234;2023-04-16T10:13:26;102570.31;;;13.56;17.42
78855;BME280;68206;59.956;30.234;2023-04-16T10:15:56;102573.91;;;13.54;17.82
78855;BME280;68206;59.956;30.234;2023-04-16T10:18:25;102568.59;;;13.51;17.81
78855;BME280;68206;59.956;30.234;2023-04-16T10:20:54;102566.06;;;13.42;17.41
78855;BME280;68206;59.956;30.234;2023-04-16T10:23:23;102576.00;;;13.27;17.50
78855;BME280;68206;59.956;30.234;2023-04-16T10:25:53;102579.41;;;13.39;17.30
78855;BME280;68206;59.956;30.234;2023-04-16T10:28:23;102587.31;;;13.46;16.73
78855;BME280;68206;59.956;30.234;2023-04-16T10:30:53;102571.25;;;13.51;16.95
78855;BME280;68206;59.956;30.234;2023-04-16T10:33:26;102569.50;;;13.50;17.01
78855;BME280;68206;59.956;30.234;2023-04-16T10:36:07;102569.41;;;13.57;16.42
78855;BME280;68206;59.956;30.234;2023-04-16T10:38:44;102557.03;;;13.53;17.17
78855;BME280;68206;59.956;30.234;2023-04-16T10:41:15;102565.19;;;13.40;17.67
78855;BME280;68206;59.956;30.234;2023-04-16T10:43:45;102582.06;;;13.40;17.77
78855;BME280;68206;59.956;30.234;2023-04-16T10:46:18;102571.41;;;13.39;17.64
78855;BME280;68206;59.956;30.234;2023-04-16T10:48:48;102582.00;;;13.43;17.43
78855;BME280;68206;59.956;30.234;2023-04-16T10:51:24;102580.41;;;13.30;17.44
78855;BME280;68206;59.956;30.234;2023-04-16T10:53:56;102580.44;;;13.25;17.88
78855;BME280;68206;59.956;30.234;2023-04-16T10:56:25;102588.59;;;13.10;18.12
78855;BME280;68206;59.956;30.234;2023-04-16T10:58:54;102574.50;;;12.99;18.99
78855;BME280;68206;59.956;30.234;2023-04-16T11:01:29;102572.75;;;12.95;18.50
78855;BME280;68206;59.956;30.234;2023-04-16T11:03:59;102561.31;;;12.81;18.72
78855;BME280;68206;59.956;30.234;2023-04-16T11:06:30;102553.25;;;12.90;19.07
78855;BME280;68206;59.956;30.234;2023-04-16T11:09:01;102561.13;;;13.01;19.02
78855;BME280;68206;59.956;30.234;2023-04-16T11:11:36;102562.13;;;12.92;18.92
78855;BME280;68206;59.956;30.234;2023-04-16T11:14:05;102556.75;;;12.95;18.62
78855;BME280;68206;59.956;30.234;2023-04-16T11:16:39;102563.72;;;13.10;18.92
78855;BME280;68206;59.956;30.234;2023-04-16T11:19:15;102556.53;;;13.19;18.97
78855;BME280;68206;59.956;30.234;2023-04-16T11:21:44;102556.59;;;13.16;18.94
78855;BME280;68206;59.956;30.234;2023-04-16T11:24:13;102553.06;;;13.08;19.38
78855;BME280;68206;59.956;30.234;2023-04-16T11:29:39;102554.06;;;12.98;18.98
78855;BME280;68206;59.956;30.234;2023-04-16T11:32:33;102548.75;;;12.98;19.15
78855;BME280;68206;59.956;30.234;2023-04-16T11:35:55;102550.53;;;12.99;19.03
78855;BME280;68206;59.956;30.234;2023-04-16T11:38:33;102550.47;;;13.05;19.01
78855;BME280;68206;59.956;30.234;2023-04-16T11:41:41;102565.63;;;12.94;18.70
78855;BME280;68206;59.956;30.234;2023-04-16T11:44:17;102549.78;;;12.83;19.09
78855;BME280;68206;59.956;30.234;2023-04-16T11:46:51;102539.19;;;12.79;19.46
78855;BME280;68206;59.956;30.234;2023-04-16T11:49:28;102543.63;;;12.75;19.16
78855;BME280;68206;59.956;30.234;2023-04-16T11:51:57;102547.22;;;12.71;19.44
78855;BME280;68206;59.956;30.234;2023-04-16T11:54:25;102543.56;;;12.81;18.76
78855;BME280;68206;59.956;30.234;2023-04-16T11:56:55;102539.19;;;12.76;18.08
78855;BME280;68206;59.956;30.234;2023-04-16T11:59:23;102535.63;;;12.80;18.42
78855;BME280;68206;59.956;30.234;2023-04-16T12:01:53;102539.13;;;12.83;17.73
78855;BME280;68206;59.956;30.234;2023-04-16T12:04:24;102525.00;;;12.77;18.30
78855;BME280;68206;59.956;30.234;2023-04-16T12:07:09;102533.78;;;12.85;17.65
78855;BME280;68206;59.956;30.234;2023-04-16T12:09:38;102531.97;;;12.87;18.04
78855;BME280;68206;59.956;30.234;2023-04-16T12:12:26;102526.56;;;12.96;17.50
78855;BME280;68206;59.956;30.234;2023-04-16T12:14:59;102533.56;;;13.06;17.68
78855;BME280;68206;59.956;30.234;2023-04-16T12:17:31;102529.09;;;13.08;17.68
78855;BME280;68206;59.956;30.234;2023-04-16T12:20:01;102510.56;;;12.99;17.65
78855;BME280;68206;59.956;30.234;2023-04-16T12:22:32;102516.69;;;13.06;17.55
78855;BME280;68206;59.956;30.234;2023-04-16T12:25:04;102512.19;;;13.15;18.12
78855;BME280;68206;59.956;30.234;2023-04-16T12:27:45;102512.06;;;13.24;17.89
78855;BME280;68206;59.956;30.234;2023-04-16T12:30:17;102511.13;;;13.28;17.90
78855;BME280;68206;59.956;30.234;2023-04-16T12:32:49;102504.03;;;13.29;18.26
78855;BME280;68206;59.956;30.234;2023-04-16T12:35:28;102495.06;;;13.35;17.88
78855;BME280;68206;59.956;30.234;2023-04-16T12:37:57;102505.72;;;13.35;18.36
78855;BME280;68206;59.956;30.234;2023-04-16T12:40:26;102503.66;;;13.56;18.42
78855;BME280;68206;59.956;30.234;2023-04-16T12:42:55;102503.47;;;13.70;17.90
78855;BME280;68206;59.956;30.234;2023-04-16T12:45:24;102491.72;;;13.83;17.55
78855;BME280;68206;59.956;30.234;2023-04-16T12:47:52;102497.78;;;13.94;17.37
78855;BME280;68206;59.956;30.234;2023-04-16T12:50:21;102499.41;;;14.04;17.37
78855;BME280;68206;59.956;30.234;2023-04-16T12:52:50;102505.13;;;13.79;17.16
78855;BME280;68206;59.956;30.234;2023-04-16T12:55:18;102498.94;;;13.75;17.07
78855;BME280;68206;59.956;30.234;2023-04-16T12:57:46;102498.13;;;13.71;16.94
78855;BME280;68206;59.956;30.234;2023-04-16T13:00:16;102495.31;;;13.81;17.00
78855;BME280;68206;59.956;30.234;2023-04-16T13:02:45;102509.50;;;13.84;16.91
78855;BME280;68206;59.956;30.234;2023-04-16T13:05:14;102496.00;;;13.93;16.84